createdAt,value
2022-10-11T00:00:13.229Z,8.70
2022-10-11T00:02:39.976Z,8.70
2022-10-11T00:05:08.135Z,8.60
2022-10-11T00:07:36.888Z,8.40
2022-10-11T00:10:04.969Z,8.40
2022-10-11T00:12:31.790Z,8.30
2022-10-11T00:14:58.566Z,8.30
2022-10-11T00:17:29.939Z,8.10
2022-10-11T00:19:56.833Z,8.00
2022-10-11T00:22:23.580Z,7.90
2022-10-11T00:24:50.337Z,7.90
2022-10-11T00:27:17.034Z,7.80
2022-10-11T00:29:43.830Z,7.70
2022-10-11T00:32:10.622Z,7.60
2022-10-11T00:34:37.319Z,7.50
2022-10-11T00:37:04.022Z,7.50
2022-10-11T00:39:30.846Z,7.50
2022-10-11T00:41:57.777Z,7.60
2022-10-11T00:44:28.397Z,7.60
2022-10-11T00:47:10.302Z,7.70
2022-10-11T00:49:43.293Z,7.70
2022-10-11T00:52:31.383Z,7.70
2022-10-11T00:55:05.875Z,7.70
2022-10-11T00:57:39.245Z,7.70
2022-10-11T01:00:11.664Z,7.70
2022-10-11T01:02:39.564Z,7.70
2022-10-11T01:05:28.730Z,7.70
2022-10-11T01:07:59.835Z,7.80
2022-10-11T01:10:28.363Z,7.80
2022-10-11T01:12:58.166Z,7.80
2022-10-11T01:15:32.816Z,7.80
2022-10-11T01:18:12.955Z,7.80
2022-10-11T01:20:58.343Z,7.80
2022-10-11T01:23:30.997Z,7.80
2022-10-11T01:26:00.467Z,7.80
2022-10-11T01:28:39.535Z,7.80
2022-10-11T01:31:20.309Z,7.70
2022-10-11T01:34:01.815Z,7.70
2022-10-11T01:36:36.326Z,7.60
2022-10-11T01:39:06.229Z,7.50
2022-10-11T01:41:43.610Z,7.40
2022-10-11T01:44:14.696Z,7.30
2022-10-11T01:46:42.079Z,7.30
2022-10-11T01:49:08.993Z,7.30
2022-10-11T01:51:48.557Z,7.20
2022-10-11T01:54:49.829Z,7.20
2022-10-11T01:57:44.259Z,7.10
2022-10-11T02:00:15.278Z,7.00
2022-10-11T02:03:18.871Z,7.00
2022-10-11T02:06:01.119Z,6.90
2022-10-11T02:08:38.941Z,6.70
2022-10-11T02:11:26.584Z,6.50
2022-10-11T02:13:56.146Z,6.40
2022-10-11T02:16:30.774Z,6.20
2022-10-11T02:19:05.125Z,6.00
2022-10-11T02:21:35.480Z,6.10
2022-10-11T02:24:09.457Z,6.00
2022-10-11T02:26:39.190Z,5.90
2022-10-11T02:29:09.541Z,6.00
2022-10-11T02:31:37.487Z,5.70
2022-10-11T02:34:16.782Z,5.60
2022-10-11T02:36:58.543Z,5.50
2022-10-11T02:39:51.942Z,5.40
2022-10-11T02:42:26.858Z,5.30
2022-10-11T02:45:18.084Z,5.20
2022-10-11T02:47:46.187Z,5.20
2022-10-11T02:50:14.636Z,5.00
2022-10-11T02:52:43.507Z,5.00
2022-10-11T02:55:11.298Z,4.90
2022-10-11T02:57:38.396Z,5.00
2022-10-11T03:00:09.835Z,4.90
2022-10-11T03:02:38.608Z,5.00
2022-10-11T03:05:08.206Z,4.90
2022-10-11T03:07:37.387Z,4.90
2022-10-11T03:10:07.381Z,4.90
2022-10-11T03:12:36.403Z,4.90
2022-10-11T03:15:08.085Z,4.90
2022-10-11T03:17:37.570Z,4.80
2022-10-11T03:20:08.609Z,4.70
2022-10-11T03:22:35.543Z,4.60
2022-10-11T03:25:05.124Z,4.50
2022-10-11T03:27:39.113Z,4.40
2022-10-11T03:30:09.979Z,4.40
2022-10-11T03:32:37.110Z,4.40
2022-10-11T03:35:04.227Z,4.30
2022-10-11T03:37:30.952Z,4.20
2022-10-11T03:39:57.721Z,4.30
2022-10-11T03:42:27.302Z,4.20
2022-10-11T03:44:54.118Z,4.20
2022-10-11T03:47:22.944Z,4.10
2022-10-11T03:49:52.152Z,4.20
2022-10-11T03:52:18.866Z,4.10
2022-10-11T03:54:45.632Z,4.20
2022-10-11T03:57:12.369Z,4.20
2022-10-11T03:59:39.076Z,4.30
2022-10-11T04:02:05.985Z,4.20
2022-10-11T04:04:32.855Z,4.10
2022-10-11T04:06:59.688Z,4.10
2022-10-11T04:09:27.061Z,4.10
2022-10-11T04:11:53.789Z,4.10
2022-10-11T04:14:20.509Z,4.00
2022-10-11T04:16:49.604Z,4.10
2022-10-11T04:19:16.324Z,4.00
2022-10-11T04:21:43.186Z,3.90
2022-10-11T04:24:12.062Z,4.00
2022-10-11T04:26:38.836Z,4.10
2022-10-11T04:29:06.084Z,4.00
2022-10-11T04:31:32.804Z,4.10
2022-10-11T04:34:01.704Z,4.00
2022-10-11T04:36:28.466Z,3.90
2022-10-11T04:38:56.354Z,3.90
2022-10-11T04:41:23.164Z,3.80
2022-10-11T04:43:50.274Z,3.70
2022-10-11T04:46:17.074Z,3.70
2022-10-11T04:48:43.993Z,3.60
2022-10-11T04:51:12.908Z,3.60
2022-10-11T04:53:42.123Z,3.60
2022-10-11T04:56:11.557Z,3.50
2022-10-11T04:58:41.503Z,3.50
2022-10-11T05:01:09.338Z,3.50
2022-10-11T05:03:36.399Z,3.40
2022-10-11T05:06:06.541Z,3.30
2022-10-11T05:08:33.941Z,3.20
2022-10-11T05:11:04.418Z,3.40
2022-10-11T05:13:34.940Z,3.20
2022-10-11T05:16:05.802Z,3.20
2022-10-11T05:18:38.487Z,3.30
2022-10-11T05:21:06.919Z,3.10
2022-10-11T05:23:35.594Z,3.10
2022-10-11T05:26:05.192Z,3.00
2022-10-11T05:28:32.705Z,3.00
2022-10-11T05:30:59.630Z,2.90
2022-10-11T05:33:26.612Z,2.80
2022-10-11T05:35:53.579Z,2.70
2022-10-11T05:38:20.384Z,2.80
2022-10-11T05:40:47.113Z,2.90
2022-10-11T05:43:13.920Z,2.70
2022-10-11T05:45:45.326Z,2.70
2022-10-11T05:48:12.521Z,2.60
2022-10-11T05:50:39.516Z,2.50
2022-10-11T05:53:06.587Z,2.60
2022-10-11T05:55:41.477Z,2.50
2022-10-11T05:58:15.340Z,2.50
2022-10-11T06:00:42.041Z,2.40
2022-10-11T06:03:11.693Z,2.40
2022-10-11T06:05:40.660Z,2.40
2022-10-11T06:08:10.674Z,2.40
2022-10-11T06:10:38.643Z,2.40
2022-10-11T06:13:06.251Z,2.40
2022-10-11T06:15:33.990Z,2.40
2022-10-11T06:18:03.544Z,2.40
2022-10-11T06:20:30.256Z,2.50
2022-10-11T06:22:58.945Z,2.50
2022-10-11T06:25:26.087Z,2.40
2022-10-11T06:27:52.783Z,2.40
2022-10-11T06:30:22.096Z,2.50
2022-10-11T06:32:48.809Z,2.50
2022-10-11T06:35:15.853Z,2.60
2022-10-11T06:37:45.010Z,2.60
2022-10-11T06:40:12.265Z,2.70
2022-10-11T06:42:39.134Z,2.70
2022-10-11T06:45:13.438Z,2.80
2022-10-11T06:47:40.160Z,2.90
2022-10-11T06:50:09.365Z,3.00
2022-10-11T06:52:36.111Z,3.10
2022-10-11T06:55:02.876Z,3.10
2022-10-11T06:57:29.806Z,3.20
2022-10-11T06:59:56.842Z,3.30
2022-10-11T07:02:23.534Z,3.30
2022-10-11T07:04:50.315Z,3.40
2022-10-11T07:07:17.091Z,3.50
2022-10-11T07:09:43.838Z,3.50
2022-10-11T07:12:12.793Z,3.60
2022-10-11T07:14:41.873Z,3.80
2022-10-11T07:17:08.680Z,3.90
2022-10-11T07:19:35.402Z,4.00
2022-10-11T07:22:02.164Z,4.10
2022-10-11T07:24:31.031Z,4.30
2022-10-11T07:27:00.161Z,4.40
2022-10-11T07:29:27.144Z,4.60
2022-10-11T07:31:53.850Z,4.70
2022-10-11T07:34:22.805Z,4.80
2022-10-11T07:36:49.470Z,5.00
2022-10-11T07:39:16.180Z,5.10
2022-10-11T07:41:46.134Z,5.30
2022-10-11T07:44:13.662Z,5.30
2022-10-11T07:46:40.531Z,5.40
2022-10-11T07:49:07.310Z,5.40
2022-10-11T07:51:34.205Z,5.70
2022-10-11T07:54:06.179Z,5.70
2022-10-11T07:56:34.035Z,5.80
2022-10-11T07:59:03.484Z,5.90
2022-10-11T08:01:30.839Z,6.00
2022-10-11T08:03:58.555Z,6.20
2022-10-11T08:06:29.238Z,6.30
2022-10-11T08:08:57.755Z,6.40
2022-10-11T08:11:28.414Z,6.40
2022-10-11T08:13:55.605Z,6.50
2022-10-11T08:16:23.051Z,6.90
2022-10-11T08:18:49.934Z,7.00
2022-10-11T08:21:20.540Z,7.10
2022-10-11T08:23:47.258Z,7.10
2022-10-11T08:26:14.536Z,7.20
2022-10-11T08:28:41.336Z,7.20
2022-10-11T08:31:11.285Z,7.30
2022-10-11T08:33:38.020Z,7.60
2022-10-11T08:36:10.784Z,7.50
2022-10-11T08:38:38.932Z,7.70
2022-10-11T08:41:17.913Z,7.60
2022-10-11T08:43:56.137Z,7.70
2022-10-11T08:46:28.385Z,7.70
2022-10-11T08:48:55.373Z,7.90
2022-10-11T08:51:32.173Z,8.10
2022-10-11T08:54:14.443Z,8.20
2022-10-11T08:56:43.209Z,8.10
2022-10-11T08:59:12.825Z,8.20
2022-10-11T09:02:06.978Z,8.10
2022-10-11T09:04:36.120Z,8.30
2022-10-11T09:07:19.540Z,8.40
2022-10-11T09:09:58.791Z,8.40
2022-10-11T09:13:06.242Z,8.60
2022-10-11T09:15:56.476Z,8.70
2022-10-11T09:18:52.558Z,8.70
2022-10-11T09:21:30.836Z,8.70
2022-10-11T09:24:27.908Z,8.70
2022-10-11T09:26:57.227Z,8.70
2022-10-11T09:29:27.174Z,8.80
2022-10-11T09:31:55.922Z,8.90
2022-10-11T09:34:26.999Z,8.90
2022-10-11T09:37:05.617Z,9.00
2022-10-11T09:39:35.606Z,9.10
2022-10-11T09:42:09.571Z,9.10
2022-10-11T09:44:41.243Z,9.00
2022-10-11T09:47:15.217Z,9.10
2022-10-11T09:49:48.960Z,9.20
2022-10-11T09:52:18.017Z,9.40
2022-10-11T09:54:47.878Z,9.50
2022-10-11T09:57:27.875Z,9.70
2022-10-11T10:00:02.251Z,9.80
2022-10-11T10:02:50.446Z,9.90
2022-10-11T10:05:17.451Z,9.90
2022-10-11T10:08:04.867Z,10.10
2022-10-11T10:10:41.464Z,10.30
2022-10-11T10:13:33.134Z,10.50
2022-10-11T10:15:59.780Z,10.60
2022-10-11T10:18:48.674Z,10.80
2022-10-11T10:21:16.166Z,10.70
2022-10-11T10:23:43.469Z,10.70
2022-10-11T10:26:19.998Z,10.60
2022-10-11T10:28:57.878Z,10.80
2022-10-11T10:31:49.499Z,10.80
2022-10-11T10:34:56.787Z,10.80
2022-10-11T10:37:34.604Z,10.90
2022-10-11T10:40:08.818Z,10.90
2022-10-11T10:42:36.263Z,11.00
2022-10-11T10:45:12.545Z,11.10
2022-10-11T10:47:52.191Z,11.30
2022-10-11T10:50:30.516Z,11.40
2022-10-11T10:53:33.171Z,11.60
2022-10-11T10:56:11.863Z,11.60
2022-10-11T10:58:58.891Z,11.70
2022-10-11T11:01:31.085Z,11.90
2022-10-11T11:04:03.318Z,12.00
2022-10-11T11:06:44.956Z,12.10
2022-10-11T11:09:11.669Z,12.50
2022-10-11T11:11:53.379Z,12.50
2022-10-11T11:14:38.128Z,12.70
2022-10-11T11:17:26.449Z,12.90
2022-10-11T11:19:53.339Z,13.10
2022-10-11T11:22:47.718Z,13.20
2022-10-11T11:25:35.512Z,13.40
2022-10-11T11:28:23.422Z,13.60
2022-10-11T11:30:52.879Z,13.90
2022-10-11T11:33:28.560Z,14.00
2022-10-11T11:36:01.364Z,13.80
2022-10-11T11:38:46.431Z,13.60
2022-10-11T11:41:20.658Z,13.80
2022-10-11T11:44:00.274Z,14.10
2022-10-11T11:46:32.496Z,14.50
2022-10-11T11:49:03.012Z,14.60
2022-10-11T11:51:35.226Z,14.80
2022-10-11T11:54:01.934Z,14.70
2022-10-11T11:57:01.204Z,14.80
2022-10-11T12:00:17.442Z,15.10
2022-10-11T12:03:17.034Z,14.70
2022-10-11T12:06:21.835Z,14.30
2022-10-11T12:09:01.691Z,13.80
2022-10-11T12:11:37.198Z,13.20
2022-10-11T12:14:18.469Z,13.10
2022-10-11T12:17:20.558Z,12.70
2022-10-11T12:20:08.407Z,12.60
2022-10-11T12:22:35.121Z,12.50
2022-10-11T12:25:14.971Z,12.10
2022-10-11T12:27:44.273Z,12.00
2022-10-11T12:30:48.333Z,12.00
2022-10-11T12:33:15.073Z,11.90
2022-10-11T12:36:07.357Z,11.90
2022-10-11T12:38:41.810Z,11.90
2022-10-11T12:41:13.263Z,11.80
2022-10-11T12:43:48.904Z,11.80
2022-10-11T12:46:33.897Z,11.80
2022-10-11T12:49:36.060Z,11.80
2022-10-11T12:52:17.878Z,11.70
2022-10-11T12:55:17.676Z,11.70
2022-10-11T12:58:24.585Z,11.60
2022-10-11T13:00:51.666Z,11.70
2022-10-11T13:03:32.014Z,11.70
2022-10-11T13:06:04.721Z,11.80
2022-10-11T13:08:37.850Z,11.60
2022-10-11T13:11:08.518Z,11.70
2022-10-11T13:14:06.260Z,11.70
2022-10-11T13:17:06.622Z,11.70
2022-10-11T13:22:21.590Z,11.70
2022-10-11T13:24:48.407Z,11.80
2022-10-11T13:27:25.698Z,11.70
2022-10-11T13:29:55.852Z,11.70
2022-10-11T13:32:27.350Z,11.60
2022-10-11T13:35:00.360Z,11.70
2022-10-11T13:37:28.874Z,11.60
2022-10-11T13:39:57.114Z,11.70
2022-10-11T13:42:29.557Z,11.80
2022-10-11T13:44:57.917Z,11.70
2022-10-11T13:47:29.774Z,11.50
2022-10-11T13:50:31.642Z,11.50
2022-10-11T13:53:22.985Z,11.50
2022-10-11T13:55:54.235Z,11.40
2022-10-11T13:58:27.417Z,11.30
2022-10-11T14:01:01.281Z,11.30
2022-10-11T14:03:43.392Z,11.30
2022-10-11T14:06:10.369Z,11.30
2022-10-11T14:08:42.896Z,11.30
2022-10-11T14:11:13.260Z,11.40
2022-10-11T14:13:40.916Z,11.50
2022-10-11T14:16:28.167Z,11.50
2022-10-11T14:18:57.915Z,11.50
2022-10-11T14:21:32.926Z,11.60
2022-10-11T14:24:08.044Z,11.60
2022-10-11T14:26:37.402Z,11.60
2022-10-11T14:29:27.221Z,11.70
2022-10-11T14:32:17.959Z,11.70
2022-10-11T14:34:48.477Z,11.90
2022-10-11T14:37:16.696Z,11.90
2022-10-11T14:39:44.052Z,11.90
2022-10-11T14:42:11.965Z,12.00
2022-10-11T14:44:38.967Z,11.90
2022-10-11T14:47:06.703Z,11.80
2022-10-11T14:49:37.449Z,11.80
2022-10-11T14:52:08.849Z,11.60
2022-10-11T14:54:35.663Z,11.60
2022-10-11T14:57:04.392Z,11.50
2022-10-11T14:59:37.761Z,11.30
2022-10-11T15:02:06.577Z,11.30
2022-10-11T15:04:35.861Z,11.10
2022-10-11T15:07:04.458Z,11.10
2022-10-11T15:09:31.377Z,10.90
2022-10-11T15:11:58.522Z,10.90
2022-10-11T15:14:26.494Z,10.80
2022-10-11T15:16:53.563Z,10.80
2022-10-11T15:19:22.692Z,10.90
2022-10-11T15:21:49.670Z,10.90
2022-10-11T15:24:19.849Z,10.70
2022-10-11T15:26:47.821Z,10.70
2022-10-11T15:29:24.016Z,10.60
2022-10-11T15:31:50.728Z,10.60
2022-10-11T15:34:17.556Z,10.50
2022-10-11T15:36:45.518Z,10.50
2022-10-11T15:39:32.489Z,10.40
2022-10-11T15:41:59.841Z,10.40
2022-10-11T15:44:26.943Z,10.40
2022-10-11T15:47:00.504Z,10.30
2022-10-11T15:49:27.761Z,10.20
2022-10-11T15:51:54.522Z,10.10
2022-10-11T15:54:21.230Z,10.10
2022-10-11T15:56:47.975Z,10.00
2022-10-11T15:59:16.877Z,9.90
2022-10-11T16:01:43.648Z,9.80
2022-10-11T16:04:10.476Z,9.80
2022-10-11T16:06:37.236Z,9.80
2022-10-11T16:09:04.083Z,9.70
2022-10-11T16:11:30.826Z,9.60
2022-10-11T16:13:58.157Z,9.50
2022-10-11T16:16:24.891Z,9.30
2022-10-11T16:18:52.095Z,9.30
2022-10-11T16:21:20.728Z,9.10
2022-10-11T16:23:49.654Z,9.00
2022-10-11T16:26:16.510Z,8.90
2022-10-11T16:28:43.840Z,8.80
2022-10-11T16:31:21.960Z,8.70
2022-10-11T16:33:52.879Z,8.50
2022-10-11T16:36:32.355Z,8.40
2022-10-11T16:39:00.495Z,8.40
2022-10-11T16:41:29.767Z,8.30
2022-10-11T16:43:56.867Z,8.30
2022-10-11T16:46:24.153Z,8.10
2022-10-11T16:48:57.229Z,8.10
2022-10-11T16:51:24.795Z,8.10
2022-10-11T16:53:52.487Z,8.00
2022-10-11T16:56:22.378Z,8.00
2022-10-11T16:58:49.273Z,7.90
2022-10-11T17:01:16.281Z,7.80
2022-10-11T17:03:45.466Z,7.80
2022-10-11T17:06:14.745Z,7.60
2022-10-11T17:08:41.529Z,7.60
2022-10-11T17:11:08.454Z,7.50
2022-10-11T17:13:39.821Z,7.40
2022-10-11T17:16:07.320Z,7.40
2022-10-11T17:18:39.603Z,7.30
2022-10-11T17:21:11.720Z,7.20
2022-10-11T17:23:39.134Z,7.10
2022-10-11T17:26:11.161Z,7.20
2022-10-11T17:28:39.022Z,7.10
2022-10-11T17:31:06.298Z,7.00
2022-10-11T17:33:33.379Z,7.00
2022-10-11T17:36:01.763Z,6.90
2022-10-11T17:38:28.523Z,6.90
2022-10-11T17:41:00.543Z,6.90
2022-10-11T17:43:28.603Z,6.80
2022-10-11T17:45:59.924Z,6.90
2022-10-11T17:48:27.975Z,6.90
2022-10-11T17:50:55.353Z,6.80
2022-10-11T17:53:25.200Z,6.80
2022-10-11T17:55:54.116Z,6.70
2022-10-11T17:58:20.812Z,6.70
2022-10-11T18:00:47.663Z,6.60
2022-10-11T18:03:18.475Z,6.60
2022-10-11T18:05:48.056Z,6.60
2022-10-11T18:08:14.917Z,6.50
2022-10-11T18:10:45.299Z,6.40
2022-10-11T18:13:17.435Z,6.50
2022-10-11T18:15:51.388Z,6.30
2022-10-11T18:18:20.210Z,6.20
2022-10-11T18:20:48.948Z,6.20
2022-10-11T18:23:19.793Z,6.10
2022-10-11T18:25:50.320Z,6.00
2022-10-11T18:28:17.541Z,6.00
2022-10-11T18:30:46.490Z,5.90
2022-10-11T18:33:14.429Z,5.80
2022-10-11T18:35:43.767Z,5.70
2022-10-11T18:38:12.757Z,5.70
2022-10-11T18:40:46.859Z,5.70
2022-10-11T18:43:13.939Z,5.70
2022-10-11T18:45:43.055Z,5.70
2022-10-11T18:48:09.783Z,5.80
2022-10-11T18:50:36.589Z,5.70
2022-10-11T18:55:34.989Z,5.60
2022-10-11T18:58:03.992Z,5.50
2022-10-11T19:00:41.374Z,5.50
2022-10-11T19:03:11.003Z,5.40
2022-10-11T19:05:39.141Z,5.40
2022-10-11T19:08:06.125Z,5.30
2022-10-11T19:10:34.070Z,5.00
2022-10-11T19:13:03.145Z,5.10
2022-10-11T19:15:32.269Z,5.00
2022-10-11T19:17:59.082Z,5.00
2022-10-11T19:20:25.816Z,5.10
2022-10-11T19:22:52.694Z,4.90
2022-10-11T19:25:21.519Z,5.00
2022-10-11T19:27:48.285Z,5.10
2022-10-11T19:30:15.027Z,5.10
2022-10-11T19:32:44.012Z,5.10
2022-10-11T19:35:10.871Z,5.10
2022-10-11T19:37:37.612Z,5.20
2022-10-11T19:40:04.813Z,5.20
2022-10-11T19:42:35.670Z,5.10
2022-10-11T19:45:02.412Z,5.10
2022-10-11T19:47:33.699Z,5.00
2022-10-11T19:50:00.612Z,4.90
2022-10-11T19:52:29.978Z,4.90
2022-10-11T19:54:59.118Z,5.00
2022-10-11T19:57:26.033Z,4.90
2022-10-11T19:59:52.755Z,4.90
2022-10-11T20:02:19.572Z,4.90
2022-10-11T20:04:52.530Z,4.90
2022-10-11T20:07:19.885Z,4.80
2022-10-11T20:09:46.689Z,4.70
2022-10-11T20:12:18.193Z,4.80
2022-10-11T20:14:44.915Z,4.60
2022-10-11T20:17:12.311Z,4.60
2022-10-11T20:19:39.144Z,4.50
2022-10-11T20:22:10.465Z,4.50
2022-10-11T20:24:39.793Z,4.40
2022-10-11T20:27:08.807Z,4.50
2022-10-11T20:29:37.785Z,4.40
2022-10-11T20:32:04.530Z,4.30
2022-10-11T20:34:31.280Z,4.20
2022-10-11T20:36:58.917Z,4.20
2022-10-11T20:39:28.245Z,4.10
2022-10-11T20:41:54.958Z,4.10
2022-10-11T20:44:23.950Z,4.00
2022-10-11T20:46:50.759Z,4.00
2022-10-11T20:49:19.747Z,4.10
2022-10-11T20:51:46.575Z,4.10
2022-10-11T20:54:15.933Z,4.00
2022-10-11T20:56:42.711Z,4.00
2022-10-11T20:59:10.512Z,4.00
2022-10-11T21:01:40.190Z,4.00
2022-10-11T21:04:10.162Z,4.00
2022-10-11T21:06:36.943Z,4.00
2022-10-11T21:09:04.356Z,4.10
2022-10-11T21:11:33.235Z,4.00
2022-10-11T21:14:02.201Z,4.00
2022-10-11T21:16:32.752Z,3.90
2022-10-11T21:19:01.111Z,3.90
2022-10-11T21:21:29.250Z,3.90
2022-10-11T21:24:01.681Z,3.80
2022-10-11T21:26:30.178Z,3.90
2022-10-11T21:28:59.200Z,3.80
2022-10-11T21:31:31.080Z,3.90
2022-10-11T21:34:00.490Z,3.80
2022-10-11T21:36:27.336Z,3.80
2022-10-11T21:38:54.713Z,3.80
2022-10-11T21:41:25.388Z,3.70
2022-10-11T21:43:53.017Z,3.80
2022-10-11T21:46:32.492Z,3.70
2022-10-11T21:49:05.971Z,3.60
2022-10-11T21:51:35.478Z,3.60
2022-10-11T21:54:03.345Z,3.50
2022-10-11T21:56:30.541Z,3.60
2022-10-11T21:58:57.740Z,3.60
2022-10-11T22:01:24.575Z,3.50
2022-10-11T22:03:54.735Z,3.50
2022-10-11T22:06:21.724Z,3.50
2022-10-11T22:08:52.634Z,3.50
2022-10-11T22:11:19.341Z,3.50
2022-10-11T22:13:46.147Z,3.60
2022-10-11T22:16:13.908Z,3.60
2022-10-11T22:18:41.335Z,3.60
2022-10-11T22:21:16.058Z,3.60
2022-10-11T22:23:44.444Z,3.60
2022-10-11T22:26:14.199Z,3.60
2022-10-11T22:28:44.014Z,3.50
2022-10-11T22:31:10.906Z,3.40
2022-10-11T22:33:40.125Z,3.40
2022-10-11T22:36:09.043Z,3.40
2022-10-11T22:38:40.966Z,3.40
2022-10-11T22:41:10.371Z,3.30
2022-10-11T22:43:37.338Z,3.40
2022-10-11T22:46:05.610Z,3.40
2022-10-11T22:48:32.384Z,3.40
2022-10-11T22:51:01.823Z,3.30
2022-10-11T22:53:29.220Z,3.50
2022-10-11T22:55:58.328Z,3.40
2022-10-11T22:58:29.755Z,3.40
2022-10-11T23:00:56.442Z,3.30
2022-10-11T23:03:23.300Z,3.20
2022-10-11T23:05:57.956Z,3.20
2022-10-11T23:08:25.360Z,3.30
2022-10-11T23:10:52.375Z,3.20
2022-10-11T23:13:19.537Z,3.10
2022-10-11T23:15:46.322Z,3.10
2022-10-11T23:18:14.743Z,3.10
2022-10-11T23:20:41.435Z,3.20
2022-10-11T23:23:10.729Z,3.20
2022-10-11T23:25:39.974Z,3.10
2022-10-11T23:28:06.793Z,3.10
2022-10-11T23:30:39.032Z,3.20
2022-10-11T23:33:05.738Z,3.20
2022-10-11T23:35:34.580Z,3.20
2022-10-11T23:38:01.269Z,3.20
2022-10-11T23:40:30.153Z,3.10
2022-10-11T23:42:58.545Z,3.10
2022-10-11T23:45:28.040Z,3.10
2022-10-11T23:47:54.778Z,3.10
2022-10-11T23:50:23.889Z,3.10
2022-10-11T23:52:52.915Z,3.10
2022-10-11T23:55:19.581Z,3.10
2022-10-11T23:57:46.271Z,3.00
